Time;durP1;ratioP1;P1;durP2;ratioP2;P2;SDS_P1;SDS_P2;PMS_P1;PMS_P2;Temp;Humidity;BMP_temperature;BMP_pressure;BME280_temperature;BME280_humidity;BME280_pressure;Samples;Min_cycle;Max_cycle;Signal;HPM_P1;HPM_P2
2021/10/29 00:01:29;;;;;;;8.32;2.17;;;31.50;48.20;;;;;;5052475;28;20100;-70
2021/10/29 00:03:56;;;;;;;2.67;1.73;;;31.60;47.70;;;;;;5051239;28;20067;-69
2021/10/29 00:06:23;;;;;;;6.57;1.60;;;31.70;48.20;;;;;;5047814;28;20025;-70
2021/10/29 00:08:50;;;;;;;3.40;1.20;;;31.90;47.60;;;;;;5050454;28;20013;-73
2021/10/29 00:11:17;;;;;;;3.60;1.63;;;32.00;47.70;;;;;;5049678;28;20109;-72
2021/10/29 00:13:44;;;;;;;5.15;1.60;;;32.10;48.90;;;;;;5049632;28;20064;-71
2021/10/29 00:16:11;;;;;;;2.58;1.58;;;32.00;47.40;;;;;;5049790;28;20032;-73
2021/10/29 00:18:38;;;;;;;6.47;1.60;;;32.00;48.70;;;;;;5049494;28;20014;-71
2021/10/29 00:21:05;;;;;;;4.15;1.42;;;32.30;47.60;;;;;;5050700;28;20239;-72
2021/10/29 00:23:32;;;;;;;2.63;1.30;;;32.60;48.70;;;;;;5048912;28;20056;-68
2021/10/29 00:25:59;;;;;;;2.40;1.20;;;32.80;47.40;;;;;;5048291;28;20029;-68
2021/10/29 00:28:27;;;;;;;2.67;1.30;;;32.90;46.80;;;;;;5049446;28;20036;-69
2021/10/29 00:30:54;;;;;;;5.70;2.17;;;33.00;46.80;;;;;;5050704;28;20029;-71
2021/10/29 00:33:21;;;;;;;2.97;1.60;;;32.80;46.60;;;;;;5049325;28;20013;-73
2021/10/29 00:35:48;;;;;;;4.57;3.95;;;33.00;46.80;;;;;;5048803;28;20155;-68
2021/10/29 00:38:15;;;;;;;2.63;1.45;;;33.00;46.50;;;;;;5048773;28;20035;-67
2021/10/29 00:40:43;;;;;;;1.95;1.15;;;33.30;46.80;;;;;;5049728;28;20051;-69
2021/10/29 00:43:11;;;;;;;3.33;1.70;;;33.20;45.60;;;;;;5064840;28;20386;-69
2021/10/29 00:45:38;;;;;;;6.60;1.73;;;33.30;45.70;;;;;;5049209;28;20025;-69
2021/10/29 00:48:06;;;;;;;2.95;1.58;;;33.50;43.90;;;;;;5046482;28;20037;-75
2021/10/29 00:50:34;;;;;;;5.53;1.45;;;33.60;43.50;;;;;;5049658;28;20071;-68
2021/10/29 00:53:01;;;;;;;2.17;1.52;;;33.70;43.10;;;;;;5081397;22;20131;-74
2021/10/29 00:55:28;;;;;;;2.42;1.52;;;33.90;44.20;;;;;;5049001;28;20127;-67
2021/10/29 00:57:55;;;;;;;4.95;2.95;;;33.60;43.80;;;;;;5049283;28;20467;-74
2021/10/29 01:00:23;;;;;;;2.45;1.80;;;33.20;43.60;;;;;;5048751;28;20067;-69
2021/10/29 01:02:50;;;;;;;8.63;1.40;;;33.40;44.90;;;;;;5048803;28;20036;-69
2021/10/29 01:05:18;;;;;;;8.32;1.58;;;33.80;43.70;;;;;;5049433;28;20017;-69
2021/10/29 01:07:45;;;;;;;4.25;1.42;;;33.70;42.80;;;;;;5046480;28;20049;-74
2021/10/29 01:10:12;;;;;;;6.57;1.80;;;33.30;43.20;;;;;;5048355;28;20033;-69
2021/10/29 01:12:39;;;;;;;3.92;1.50;;;33.00;43.30;;;;;;5048940;28;20019;-68
2021/10/29 01:15:09;;;;;;;4.30;1.92;;;33.10;43.70;;;;;;5049125;28;20052;-69
2021/10/29 01:17:37;;;;;;;7.32;1.70;;;33.50;43.30;;;;;;5048296;28;20079;-73
2021/10/29 01:20:06;;;;;;;8.02;1.58;;;33.30;42.90;;;;;;5048575;28;20040;-66
2021/10/29 01:22:33;;;;;;;2.67;1.52;;;32.90;43.70;;;;;;5045628;28;20021;-71
2021/10/29 01:25:00;;;;;;;4.30;1.67;;;32.70;44.30;;;;;;5045716;28;20033;-67
2021/10/29 01:27:27;;;;;;;3.35;1.42;;;32.90;43.90;;;;;;5045597;28;20426;-69
2021/10/29 01:29:54;;;;;;;3.97;1.42;;;33.20;44.20;;;;;;5044876;28;20041;-66
2021/10/29 01:32:22;;;;;;;2.80;1.63;;;33.70;44.60;;;;;;5044734;28;20074;-66
2021/10/29 01:34:52;;;;;;;6.00;1.52;;;34.00;42.50;;;;;;5044847;28;20048;-66
2021/10/29 01:37:19;;;;;;;3.58;1.70;;;33.80;42.60;;;;;;5045246;28;20063;-69
2021/10/29 01:39:46;;;;;;;2.42;1.58;;;34.00;43.20;;;;;;5045630;28;20035;-69
2021/10/29 01:42:14;;;;;;;4.68;1.80;;;34.30;43.00;;;;;;5044945;28;20025;-67
2021/10/29 01:44:41;;;;;;;4.88;2.10;;;34.60;43.00;;;;;;5045806;28;20182;-68
2021/10/29 01:47:09;;;;;;;4.60;1.80;;;34.20;42.70;;;;;;5045466;28;20326;-69
2021/10/29 01:49:39;;;;;;;2.75;1.48;;;33.60;42.70;;;;;;5045923;28;20029;-73
2021/10/29 01:52:10;;;;;;;2.20;1.33;;;32.90;43.80;;;;;;5045217;28;20028;-69
2021/10/29 01:54:38;;;;;;;7.63;1.48;;;32.70;43.80;;;;;;5045117;28;20952;-73
2021/10/29 01:57:05;;;;;;;3.15;1.70;;;32.50;44.70;;;;;;5046238;28;20081;-69
2021/10/29 01:59:33;;;;;;;2.17;1.50;;;32.40;44.80;;;;;;5045528;28;20033;-67
2021/10/29 02:02:00;;;;;;;3.30;1.67;;;32.30;45.10;;;;;;5045933;28;20033;-73
2021/10/29 02:04:27;;;;;;;2.78;1.45;;;32.10;45.70;;;;;;5046592;28;20708;-73
2021/10/29 02:06:54;;;;;;;3.28;1.20;;;32.10;45.40;;;;;;5047408;28;20852;-70
2021/10/29 02:09:21;;;;;;;4.78;1.40;;;32.30;45.20;;;;;;5042907;28;20021;-69
2021/10/29 02:11:48;;;;;;;4.78;1.40;;;32.40;45.20;;;;;;5044022;28;20033;-72
2021/10/29 02:14:15;;;;;;;6.07;1.58;;;32.30;44.70;;;;;;5044744;28;20551;-68
2021/10/29 02:16:43;;;;;;;7.43;1.30;;;31.90;45.30;;;;;;5045047;28;20052;-66
2021/10/29 02:19:10;;;;;;;6.10;1.80;;;31.60;45.50;;;;;;5044794;28;20127;-69
2021/10/29 02:21:37;;;;;;;5.15;1.45;;;31.40;46.20;;;;;;5045023;28;20056;-71
2021/10/29 02:24:05;;;;;;;5.60;1.38;;;31.30;46.40;;;;;;5045244;28;20020;-68
2021/10/29 02:26:34;;;;;;;5.78;1.65;;;31.20;46.60;;;;;;5045138;28;20036;-72
2021/10/29 02:29:03;;;;;;;5.32;1.80;;;31.10;46.70;;;;;;5045255;28;20025;-75
2021/10/29 02:31:30;;;;;;;2.90;1.40;;;31.00;46.90;;;;;;5046271;28;20064;-69
2021/10/29 02:33:58;;;;;;;4.22;1.90;;;31.10;46.80;;;;;;5045310;28;20017;-72
2021/10/29 02:36:25;;;;;;;4.63;2.10;;;31.20;47.20;;;;;;5045265;28;20108;-67
2021/10/29 02:38:52;;;;;;;8.88;2.03;;;31.30;46.80;;;;;;5045043;28;20368;-72
2021/10/29 02:41:19;;;;;;;5.57;1.60;;;31.20;46.40;;;;;;5045391;28;20091;-68
2021/10/29 02:43:46;;;;;;;4.25;1.60;;;31.00;47.10;;;;;;5043438;28;20024;-67
2021/10/29 02:46:14;;;;;;;9.98;1.77;;;31.30;46.00;;;;;;5045123;28;20131;-67
2021/10/29 02:48:41;;;;;;;2.83;1.55;;;31.30;45.90;;;;;;5045530;28;20395;-75
2021/10/29 02:51:08;;;;;;;4.18;2.22;;;31.30;45.40;;;;;;5044822;28;20032;-69
2021/10/29 02:53:37;;;;;;;7.50;2.10;;;31.30;45.70;;;;;;5045143;28;20550;-74
2021/10/29 02:56:06;;;;;;;7.70;1.90;;;31.20;45.20;;;;;;5044832;28;20021;-73
2021/10/29 02:58:34;;;;;;;11.48;2.30;;;31.30;45.00;;;;;;5044363;28;20036;-71
2021/10/29 03:01:01;;;;;;;13.70;2.33;;;31.50;45.00;;;;;;5044823;28;20052;-69
2021/10/29 03:03:29;;;;;;;7.95;2.13;;;31.90;45.00;;;;;;5044974;28;20689;-73
2021/10/29 03:05:57;;;;;;;5.47;1.70;;;31.70;44.10;;;;;;5045039;28;20021;-69
2021/10/29 03:08:24;;;;;;;6.70;1.90;;;31.70;45.10;;;;;;5043353;28;20028;-71
2021/10/29 03:10:51;;;;;;;8.80;1.80;;;31.40;45.20;;;;;;5045089;28;20365;-74
2021/10/29 03:13:20;;;;;;;8.90;1.73;;;31.50;45.70;;;;;;5045608;28;20025;-69
2021/10/29 03:15:49;;;;;;;6.45;1.80;;;31.40;45.40;;;;;;5045514;28;20430;-75
2021/10/29 03:18:17;;;;;;;10.88;2.47;;;31.20;46.10;;;;;;5044902;28;20071;-67
2021/10/29 03:20:45;;;;;;;7.63;2.05;;;31.50;45.80;;;;;;5044676;28;20032;-68
2021/10/29 03:23:14;;;;;;;9.77;2.17;;;31.60;44.70;;;;;;5045760;28;20029;-76
2021/10/29 03:25:42;;;;;;;6.22;2.00;;;31.60;44.10;;;;;;5044973;28;20029;-76
2021/10/29 03:28:10;;;;;;;9.82;2.22;;;31.60;43.40;;;;;;5045150;28;20026;-68
2021/10/29 03:30:37;;;;;;;9.32;2.38;;;31.50;43.90;;;;;;5044829;28;20029;-68
2021/10/29 03:33:04;;;;;;;12.75;2.25;;;31.50;43.90;;;;;;5049050;28;20017;-70
2021/10/29 03:35:31;;;;;;;7.90;1.90;;;31.50;42.90;;;;;;5047118;28;20032;-69
2021/10/29 03:40:58;;;;;;;11.68;2.58;;;31.50;42.50;;;;;;5048870;28;20036;-75
2021/10/29 03:43:42;;;;;;;13.35;2.38;;;31.10;41.80;;;;;;5048362;28;20025;-71
2021/10/29 03:49:08;;;;;;;11.93;2.47;;;31.60;40.90;;;;;;5047841;28;20032;-68
2021/10/29 03:54:07;;;;;;;13.45;2.38;;;32.40;40.20;;;;;;5048535;28;20377;-75
2021/10/29 03:57:06;;;;;;;9.48;2.05;;;32.10;38.90;;;;;;5047778;28;20407;-75
2021/10/29 03:59:21;;;;;;;9.88;1.92;;;31.90;39.50;;;;;;4347067;28;10000744;-71
2021/10/29 04:01:48;;;;;;;13.40;2.50;;;32.00;39.40;;;;;;5041413;28;20029;-71
2021/10/29 04:04:15;;;;;;;16.85;2.60;;;32.20;38.80;;;;;;5043912;28;20477;-74
2021/10/29 04:06:42;;;;;;;13.73;2.63;;;31.80;37.40;;;;;;5044857;28;20037;-71
2021/10/29 04:09:09;;;;;;;15.77;2.60;;;31.50;37.50;;;;;;5041319;28;20942;-68
2021/10/29 04:11:38;;;;;;;17.08;3.20;;;31.30;36.80;;;;;;5044918;28;20387;-68
2021/10/29 04:14:06;;;;;;;14.52;2.85;;;31.40;36.60;;;;;;5045156;28;20024;-73
2021/10/29 04:16:37;;;;;;;12.60;2.60;;;31.30;36.30;;;;;;5043916;28;20285;-68
2021/10/29 04:19:13;;;;;;;11.98;2.28;;;31.10;36.20;;;;;;5043714;28;20048;-74
2021/10/29 04:21:41;;;;;;;13.57;2.40;;;31.30;35.80;;;;;;5042183;28;20554;-73
2021/10/29 04:24:08;;;;;;;14.90;2.72;;;31.30;36.10;;;;;;5043905;28;20526;-75
2021/10/29 04:26:37;;;;;;;16.23;2.50;;;31.40;36.40;;;;;;5045000;28;20028;-74
2021/10/29 04:29:13;;;;;;;11.20;2.58;;;31.20;36.10;;;;;;5043292;28;20033;-73
2021/10/29 04:31:51;;;;;;;18.00;2.72;;;31.30;37.10;;;;;;5041487;28;20025;-67
2021/10/29 04:34:21;;;;;;;18.52;3.00;;;31.20;36.90;;;;;;5043220;28;20555;-74
2021/10/29 04:36:49;;;;;;;16.50;2.50;;;31.50;36.90;;;;;;5045029;28;20537;-74
2021/10/29 04:39:17;;;;;;;11.55;1.83;;;31.30;36.10;;;;;;5043441;28;20087;-67
2021/10/29 04:41:47;;;;;;;14.32;3.20;;;31.20;35.90;;;;;;5043632;28;20515;-73
2021/10/29 04:44:14;;;;;;;15.63;2.67;;;31.00;35.50;;;;;;5043089;28;20028;-72
2021/10/29 04:46:41;;;;;;;9.07;1.75;;;31.10;35.70;;;;;;5041769;28;20108;-67
2021/10/29 04:49:08;;;;;;;11.05;2.50;;;30.90;36.40;;;;;;5040775;28;20480;-69
2021/10/29 04:51:35;;;;;;;13.73;2.00;;;31.00;36.70;;;;;;5043960;28;20025;-72
2021/10/29 04:54:03;;;;;;;8.18;1.90;;;31.20;35.70;;;;;;5043462;28;20048;-68
2021/10/29 04:56:30;;;;;;;13.43;2.35;;;31.40;36.20;;;;;;5043738;28;20872;-71
2021/10/29 04:58:57;;;;;;;16.88;2.65;;;31.30;35.30;;;;;;5043544;28;20032;-69
2021/10/29 05:01:24;;;;;;;17.75;2.40;;;31.00;35.00;;;;;;5045263;28;20037;-76
2021/10/29 05:03:51;;;;;;;10.15;2.33;;;31.20;35.40;;;;;;5042341;28;20159;-71
2021/10/29 05:06:18;;;;;;;13.38;2.10;;;31.50;35.30;;;;;;5042098;28;20143;-69
2021/10/29 05:08:45;;;;;;;11.80;2.10;;;31.40;35.80;;;;;;5041328;28;20475;-77
2021/10/29 05:11:12;;;;;;;12.85;2.75;;;31.30;34.80;;;;;;5042652;28;20025;-69
2021/10/29 05:13:39;;;;;;;9.48;1.90;;;30.90;34.90;;;;;;5042976;28;20025;-73
2021/10/29 05:16:06;;;;;;;12.00;2.30;;;30.70;35.20;;;;;;5042060;28;20104;-74
2021/10/29 05:18:33;;;;;;;11.35;1.90;;;30.30;36.50;;;;;;5039893;28;20064;-76
2021/10/29 05:21:00;;;;;;;16.05;2.83;;;30.40;35.40;;;;;;5041576;28;20032;-69
2021/10/29 05:23:27;;;;;;;14.20;1.90;;;30.40;35.90;;;;;;5042523;28;20107;-68
2021/10/29 05:25:54;;;;;;;14.57;2.15;;;30.40;35.50;;;;;;5043862;28;20052;-67
2021/10/29 05:28:21;;;;;;;17.45;2.45;;;30.40;35.80;;;;;;5042266;28;20028;-73
2021/10/29 05:30:48;;;;;;;14.07;2.20;;;30.80;36.00;;;;;;5042539;28;20029;-68
2021/10/29 05:33:15;;;;;;;9.30;2.28;;;30.90;34.80;;;;;;5041817;28;20021;-72
2021/10/29 05:35:42;;;;;;;13.70;1.92;;;30.70;35.40;;;;;;5040428;28;20032;-70
2021/10/29 05:38:09;;;;;;;17.10;2.20;;;30.40;35.50;;;;;;5042492;28;20025;-66
2021/10/29 05:40:36;;;;;;;11.98;2.53;;;30.50;35.60;;;;;;5043364;28;20045;-73
2021/10/29 05:43:03;;;;;;;11.90;1.98;;;30.60;35.10;;;;;;5040627;28;20491;-71
2021/10/29 05:45:30;;;;;;;8.82;1.90;;;30.80;35.50;;;;;;5042397;28;20456;-68
2021/10/29 05:48:03;;;;;;;12.07;1.70;;;30.70;35.20;;;;;;5042188;28;20407;-67
2021/10/29 05:50:30;;;;;;;14.70;1.60;;;30.60;34.90;;;;;;5042501;28;20768;-72
2021/10/29 05:52:58;;;;;;;9.25;1.50;;;30.80;34.00;;;;;;5041538;28;20591;-73
2021/10/29 05:55:28;;;;;;;10.05;1.90;;;30.70;34.60;;;;;;5039639;28;20498;-67
2021/10/29 05:57:55;;;;;;;9.52;1.80;;;30.70;34.30;;;;;;5040834;28;20162;-69
2021/10/29 06:00:28;;;;;;;11.73;1.90;;;31.00;34.20;;;;;;5041776;28;20076;-72
2021/10/29 06:03:02;;;;;;;12.75;2.00;;;31.40;33.20;;;;;;5041693;28;20029;-68
2021/10/29 06:05:29;;;;;;;9.70;1.88;;;31.40;32.80;;;;;;5041978;28;20016;-73
2021/10/29 06:07:56;;;;;;;11.70;2.47;;;31.20;33.70;;;;;;5038279;28;20123;-67
2021/10/29 06:10:24;;;;;;;13.35;1.95;;;31.30;33.40;;;;;;5040624;28;20082;-68
2021/10/29 06:12:51;;;;;;;6.40;1.38;;;31.30;32.10;;;;;;5040226;28;20021;-67
2021/10/29 06:15:19;;;;;;;11.10;1.70;;;31.10;31.70;;;;;;5041818;28;20028;-74
2021/10/29 06:17:47;;;;;;;11.07;1.70;;;30.70;32.80;;;;;;5041047;28;20033;-67
2021/10/29 06:20:14;;;;;;;13.80;2.05;;;30.70;32.30;;;;;;5041140;28;20040;-67
2021/10/29 06:22:55;;;;;;;12.35;1.83;;;30.70;32.40;;;;;;5041908;28;20094;-74
2021/10/29 06:25:27;;;;;;;12.63;2.03;;;30.50;31.60;;;;;;5041795;28;20101;-70
2021/10/29 06:30:45;;;;;;;6.75;2.53;;;30.30;31.40;;;;;;5042140;28;20565;-71
2021/10/29 06:33:19;;;;;;;10.25;1.80;;;30.40;31.10;;;;;;5040934;28;20161;-68
2021/10/29 06:35:47;;;;;;;9.50;1.38;;;30.30;31.60;;;;;;5039820;28;20028;-68
2021/10/29 06:38:14;;;;;;;9.90;1.40;;;30.60;31.40;;;;;;5038045;28;20072;-70
2021/10/29 06:40:46;;;;;;;10.38;1.63;;;31.20;30.90;;;;;;5039990;28;20659;-69
2021/10/29 06:43:23;;;;;;;;;;;31.20;30.70;;;;;;5043522;28;20067;-71
2021/10/29 07:02:13;;;;;;;5.13;1.38;;;31.10;30.10;;;;;;5042187;28;20033;-68
2021/10/29 07:04:58;;;;;;;7.03;1.13;;;30.70;30.70;;;;;;5041966;28;20459;-72
2021/10/29 07:40:42;;;;;;;4.85;0.85;;;29.10;31.30;;;;;;5039788;28;20208;-69
2021/10/29 07:43:13;;;;;;;4.80;1.00;;;28.60;32.90;;;;;;5036613;28;20056;-75
2021/10/29 07:45:42;;;;;;;6.68;2.97;;;28.40;32.90;;;;;;5040117;28;20132;-67
2021/10/29 07:48:09;;;;;;;13.10;3.72;;;28.30;32.40;;;;;;5041307;28;20025;-69
2021/10/29 07:50:36;;;;;;;8.02;1.40;;;28.30;33.00;;;;;;5038423;28;20040;-70
2021/10/29 07:53:03;;;;;;;8.13;2.08;;;28.20;33.70;;;;;;5036650;28;20443;-71
2021/10/29 07:55:31;;;;;;;5.47;0.90;;;27.90;33.50;;;;;;5038355;28;20033;-68
2021/10/29 07:58:03;;;;;;;3.95;0.90;;;27.10;34.20;;;;;;5037952;28;20035;-67
2021/10/29 08:00:32;;;;;;;6.05;1.15;;;26.50;34.70;;;;;;5039615;28;20580;-72
2021/10/29 08:03:02;;;;;;;4.85;0.70;;;26.00;35.50;;;;;;5039333;28;20056;-72
2021/10/29 08:05:30;;;;;;;2.70;0.52;;;25.70;35.90;;;;;;5039200;28;20040;-70
2021/10/29 08:07:57;;;;;;;4.75;0.90;;;25.40;36.40;;;;;;5038863;28;20156;-68
2021/10/29 08:10:25;;;;;;;3.63;0.98;;;25.20;36.70;;;;;;5039742;28;20035;-71
2021/10/29 08:12:52;;;;;;;4.00;0.82;;;25.10;36.40;;;;;;5040871;28;20031;-67
2021/10/29 08:15:19;;;;;;;4.25;0.75;;;25.00;37.10;;;;;;5039367;28;20025;-67
2021/10/29 08:17:46;;;;;;;3.20;0.60;;;25.00;36.60;;;;;;5042238;28;20021;-71
2021/10/29 08:20:16;;;;;;;4.00;0.80;;;24.90;36.50;;;;;;5042978;28;20128;-72
2021/10/29 08:22:44;;;;;;;9.13;0.82;;;24.80;37.50;;;;;;5043280;28;20029;-69
2021/10/29 08:25:12;;;;;;;4.35;0.63;;;24.70;37.70;;;;;;5043533;28;20040;-70
2021/10/29 08:27:40;;;;;;;3.22;0.60;;;24.70;37.70;;;;;;5044210;28;20025;-73
2021/10/29 08:30:08;;;;;;;4.22;1.10;;;24.60;37.60;;;;;;5044346;28;20051;-72
2021/10/29 08:32:42;;;;;;;1.52;0.60;;;24.60;37.30;;;;;;5042450;28;20372;-71
2021/10/29 08:35:10;;;;;;;1.27;0.52;;;24.50;38.10;;;;;;5041821;28;20033;-69
2021/10/29 08:37:40;;;;;;;1.98;0.60;;;24.40;37.40;;;;;;5041515;28;20029;-72
2021/10/29 08:40:08;;;;;;;3.25;0.50;;;24.20;38.80;;;;;;5043343;28;20043;-72
2021/10/29 08:42:36;;;;;;;3.65;0.70;;;24.20;38.10;;;;;;5042882;28;20321;-69
2021/10/29 08:45:06;;;;;;;0.85;0.52;;;24.20;37.90;;;;;;5041161;28;20045;-69
2021/10/29 08:47:36;;;;;;;2.40;0.60;;;24.30;37.50;;;;;;5039895;28;20048;-72
2021/10/29 08:50:06;;;;;;;7.22;0.80;;;24.20;37.90;;;;;;5041301;28;20349;-71
2021/10/29 08:52:33;;;;;;;3.50;0.68;;;24.10;37.50;;;;;;5039923;28;20025;-71
2021/10/29 08:55:04;;;;;;;3.38;0.55;;;24.10;37.90;;;;;;5040174;28;20083;-68
2021/10/29 08:57:31;;;;;;;4.20;0.93;;;24.00;38.40;;;;;;5038710;28;20036;-70
2021/10/29 08:59:59;;;;;;;2.45;0.85;;;24.00;38.10;;;;;;5040631;28;20036;-73
2021/10/29 09:02:32;;;;;;;3.17;0.77;;;24.00;38.50;;;;;;5040903;28;20506;-71
2021/10/29 09:07:41;;;;;;;5.05;0.73;;;24.00;37.60;;;;;;5041170;28;20725;-68
2021/10/29 09:32:40;;;;;;;5.00;0.47;;;23.20;39.80;;;;;;5040065;28;20038;-71
2021/10/29 09:35:11;;;;;;;3.92;0.90;;;23.10;39.60;;;;;;5039377;28;20737;-69
2021/10/29 09:37:57;;;;;;;2.38;0.60;;;23.00;39.70;;;;;;5040256;28;20017;-68
2021/10/29 09:40:26;;;;;;;2.58;0.50;;;23.00;40.40;;;;;;5039889;28;20104;-73
2021/10/29 09:42:59;;;;;;;1.40;0.50;;;22.90;40.80;;;;;;5039495;28;20056;-68
2021/10/29 09:45:28;;;;;;;4.07;0.70;;;23.00;41.20;;;;;;5041485;28;20361;-71
2021/10/29 09:48:24;;;;;;;1.85;0.50;;;23.00;41.20;;;;;;5041370;28;20063;-69
2021/10/29 09:50:55;;;;;;;0.52;0.30;;;22.90;41.10;;;;;;5040195;28;20526;-68
2021/10/29 09:54:18;;;;;;;1.77;0.40;;;22.80;40.70;;;;;;5037151;28;20407;-67
2021/10/29 09:56:44;;;;;;;1.60;0.40;;;22.80;40.90;;;;;;5031142;28;20047;-67
2021/10/29 09:59:09;;;;;;;2.00;0.50;;;22.70;41.20;;;;;;5038273;28;20464;-67
2021/10/29 10:01:37;;;;;;;4.30;0.32;;;22.70;41.00;;;;;;5039047;28;20044;-68
2021/10/29 10:04:06;;;;;;;3.78;1.00;;;22.70;41.10;;;;;;5039561;28;20039;-69
2021/10/29 10:06:37;;;;;;;2.25;0.30;;;22.70;40.80;;;;;;5039105;28;20040;-69
2021/10/29 10:09:08;;;;;;;2.42;0.35;;;22.70;40.80;;;;;;5039178;28;20028;-67
2021/10/29 10:11:38;;;;;;;3.28;0.82;;;22.70;41.40;;;;;;5038730;28;20124;-70
2021/10/29 10:14:06;;;;;;;4.13;0.68;;;22.60;41.00;;;;;;5038665;28;20067;-71
2021/10/29 10:16:34;;;;;;;1.85;0.30;;;22.60;41.20;;;;;;5037940;28;20152;-67
2021/10/29 10:19:02;;;;;;;2.13;0.93;;;22.50;41.00;;;;;;5040318;28;20032;-66
2021/10/29 10:21:40;;;;;;;0.90;0.25;;;22.60;40.90;;;;;;5040310;28;20033;-67
2021/10/29 10:24:13;;;;;;;0.65;0.40;;;22.60;41.10;;;;;;5039258;28;20029;-69
2021/10/29 10:26:57;;;;;;;0.68;0.32;;;22.60;41.30;;;;;;5039023;28;20028;-68
2021/10/29 10:54:32;;;;;;;7.65;2.30;;;21.40;45.40;;;;;;5039136;28;20128;-69
2021/10/29 10:59:54;;;;;;;28.55;4.25;;;21.40;43.50;;;;;;5038590;28;20383;-69
2021/10/29 11:11:05;;;;;;;8.02;2.67;;;21.50;44.00;;;;;;5037963;28;20043;-69
2021/10/29 11:13:53;;;;;;;13.77;1.37;;;21.30;44.70;;;;;;5037058;28;20094;-65
2021/10/29 11:16:40;;;;;;;2.83;0.50;;;21.20;45.60;;;;;;5038418;28;20483;-68
2021/10/29 11:19:22;;;;;;;4.78;0.40;;;21.10;45.00;;;;;;5039566;28;20032;-70
2021/10/29 11:21:55;;;;;;;5.47;0.73;;;21.10;44.40;;;;;;5037630;28;20024;-66
2021/10/29 11:24:38;;;;;;;1.63;0.52;;;21.10;46.70;;;;;;5037988;28;20029;-65
2021/10/29 11:27:25;;;;;;;1.65;0.55;;;20.90;46.40;;;;;;5037689;28;20029;-66
2021/10/29 11:29:55;;;;;;;3.30;0.50;;;20.80;47.40;;;;;;5038047;28;20025;-70
2021/10/29 11:32:26;;;;;;;2.92;0.50;;;20.60;48.10;;;;;;5036951;28;20686;-70
2021/10/29 11:35:03;;;;;;;2.22;0.47;;;20.40;47.70;;;;;;5037657;28;20013;-70
2021/10/29 11:37:35;;;;;;;1.73;0.60;;;20.20;49.30;;;;;;5037499;28;20027;-65
2021/10/29 11:40:03;;;;;;;;;;;19.90;49.50;;;;;;5038886;28;20083;-67
2021/10/29 11:42:30;;;;;;;0.55;0.50;;;19.90;49.20;;;;;;5037412;28;20803;-66
2021/10/29 11:45:00;;;;;;;2.28;0.40;;;19.80;49.90;;;;;;5037840;28;20429;-65
2021/10/29 11:47:29;;;;;;;3.15;0.52;;;19.70;49.20;;;;;;5036469;28;20127;-65
2021/10/29 11:50:07;;;;;;;2.90;0.55;;;19.90;49.90;;;;;;5039126;28;20452;-65
2021/10/29 11:52:35;;;;;;;5.07;0.82;;;19.80;50.50;;;;;;5041549;28;20455;-69
2021/10/29 11:55:02;;;;;;;3.45;0.40;;;19.70;51.00;;;;;;5044792;28;20025;-65
2021/10/29 12:08:28;;;;;;;12.73;1.33;;;19.40;52.70;;;;;;5042156;28;20557;-65
2021/10/29 12:11:07;;;;;;;10.80;1.48;;;19.20;53.00;;;;;;5043031;28;20025;-69
2021/10/29 12:13:41;;;;;;;6.43;1.60;;;19.30;52.00;;;;;;5044273;28;20454;-68
2021/10/29 12:16:25;;;;;;;10.32;1.80;;;19.40;51.40;;;;;;5043501;28;20094;-66
2021/10/29 12:19:05;;;;;;;9.98;1.67;;;19.40;51.60;;;;;;5043832;28;20487;-66
2021/10/29 12:21:44;;;;;;;5.22;1.10;;;19.40;51.50;;;;;;5042978;28;20044;-67
2021/10/29 12:24:16;;;;;;;9.32;1.33;;;19.30;51.50;;;;;;5044279;28;20040;-69
2021/10/29 12:26:43;;;;;;;9.77;1.30;;;19.20;53.00;;;;;;5041709;28;20036;-71
2021/10/29 12:29:16;;;;;;;5.78;1.58;;;19.10;54.50;;;;;;5044562;28;20016;-65
2021/10/29 12:38:28;;;;;;;7.97;0.80;;;18.80;54.70;;;;;;5045638;28;20029;-64
2021/10/29 13:03:38;;;;;;;5.15;1.08;;;17.90;58.10;;;;;;5047300;28;20078;-67
2021/10/29 13:06:08;;;;;;;10.30;1.25;;;18.00;57.80;;;;;;5046261;28;20025;-67
2021/10/29 13:08:39;;;;;;;6.75;1.23;;;17.90;57.80;;;;;;5044887;28;20068;-67
2021/10/29 13:11:11;;;;;;;4.57;1.52;;;17.80;58.50;;;;;;5047059;28;20021;-68
2021/10/29 13:13:41;;;;;;;3.92;1.15;;;17.50;60.20;;;;;;5046975;28;20013;-67
2021/10/29 13:16:11;;;;;;;10.77;1.88;;;17.50;59.20;;;;;;5046890;28;20814;-66
2021/10/29 13:26:45;;;;;;;16.35;2.20;;;17.00;61.40;;;;;;5046768;28;20036;-65
2021/10/29 13:56:12;;;;;;;1.10;0.40;;;17.60;60.20;;;;;;5045229;28;20063;-67
2021/10/29 13:58:55;;;;;;;0.93;0.40;;;17.60;60.30;;;;;;5045536;28;20033;-69
2021/10/29 14:29:11;;;;;;;1.45;0.30;;;17.80;58.00;;;;;;5044930;28;20067;-69
2021/10/29 14:32:07;;;;;;;0.75;0.32;;;17.90;57.80;;;;;;5045041;28;20025;-67
2021/10/29 14:34:37;;;;;;;2.72;0.40;;;17.90;58.10;;;;;;5044451;28;20040;-67
2021/10/29 14:40:06;;;;;;;4.28;0.50;;;17.70;58.30;;;;;;5045245;28;20090;-68
2021/10/29 14:42:38;;;;;;;3.17;0.50;;;17.70;58.40;;;;;;5044948;28;20067;-67
2021/10/29 14:45:30;;;;;;;2.28;0.40;;;17.70;58.30;;;;;;5044827;28;20029;-67
2021/10/29 15:44:58;;;;;;;1.70;0.47;;;16.50;61.70;;;;;;5048733;28;20036;-67
2021/10/29 15:47:28;;;;;;;0.55;0.50;;;16.50;62.40;;;;;;5046304;28;20040;-67
2021/10/29 15:49:58;;;;;;;0.88;0.20;;;16.40;61.90;;;;;;5048191;28;20427;-68
2021/10/29 15:52:25;;;;;;;0.60;0.35;;;16.30;62.20;;;;;;5047372;28;20082;-68
2021/10/29 15:55:00;;;;;;;0.90;0.40;;;16.20;62.30;;;;;;5048026;28;20045;-67
2021/10/29 15:57:32;;;;;;;0.88;0.35;;;16.20;63.30;;;;;;5046170;28;20025;-67
2021/10/29 16:18:56;;;;;;;1.25;0.20;;;15.80;63.50;;;;;;5047736;28;20552;-68
2021/10/29 16:21:23;;;;;;;0.55;0.30;;;15.70;63.90;;;;;;5046575;28;20028;-67
2021/10/29 16:23:50;;;;;;;1.30;0.30;;;15.60;64.00;;;;;;5046757;28;20028;-67
2021/10/29 16:26:20;;;;;;;2.17;0.30;;;15.50;64.40;;;;;;5047330;28;20501;-68
2021/10/29 16:28:49;;;;;;;0.75;0.30;;;15.60;64.10;;;;;;5048020;28;20051;-66
2021/10/29 16:31:16;;;;;;;0.85;0.30;;;15.50;64.20;;;;;;5045906;28;20033;-68
2021/10/29 16:33:43;;;;;;;2.78;0.50;;;15.50;64.40;;;;;;5046770;28;20029;-67
2021/10/29 16:36:10;;;;;;;2.35;0.47;;;15.40;64.60;;;;;;5048049;28;20029;-68
2021/10/29 16:38:37;;;;;;;0.60;0.30;;;15.40;64.80;;;;;;5046846;28;20025;-68
2021/10/29 16:41:04;;;;;;;0.88;0.35;;;15.30;65.10;;;;;;5047228;28;20103;-67
2021/10/29 16:43:35;;;;;;;4.35;0.40;;;15.10;65.60;;;;;;5045778;28;20700;-68
2021/10/29 16:46:03;;;;;;;1.35;0.40;;;15.20;65.50;;;;;;5047603;28;20025;-68
2021/10/29 16:48:30;;;;;;;2.20;0.30;;;15.10;65.70;;;;;;5046249;28;20033;-68
2021/10/29 16:50:57;;;;;;;0.47;0.35;;;15.00;66.60;;;;;;5047388;28;20091;-68
2021/10/29 16:53:24;;;;;;;1.77;0.40;;;14.90;66.60;;;;;;5047025;28;20046;-69
2021/10/29 16:55:51;;;;;;;2.55;0.28;;;14.90;66.70;;;;;;5047895;28;21280;-68
2021/10/29 16:58:18;;;;;;;3.33;0.63;;;14.80;66.70;;;;;;5046459;28;20024;-68
2021/10/29 17:00:45;;;;;;;0.28;0.28;;;14.90;66.30;;;;;;5047885;28;20036;-67
2021/10/29 17:03:14;;;;;;;0.85;0.20;;;14.90;66.30;;;;;;5045780;28;20475;-67
2021/10/29 17:05:41;;;;;;;2.00;0.40;;;14.90;66.30;;;;;;5046980;28;20621;-67
2021/10/29 17:08:08;;;;;;;0.43;0.22;;;14.80;66.60;;;;;;5044447;28;20044;-67
2021/10/29 17:10:35;;;;;;;2.80;0.50;;;14.70;66.60;;;;;;5046564;28;20048;-67
2021/10/29 17:13:03;;;;;;;3.03;0.50;;;14.70;66.80;;;;;;5046267;28;20033;-67
2021/10/29 17:15:33;;;;;;;1.02;0.40;;;14.60;67.50;;;;;;5046532;28;20175;-67
2021/10/29 17:18:00;;;;;;;1.88;0.40;;;14.50;67.50;;;;;;5044777;28;20032;-68
2021/10/29 17:20:27;;;;;;;5.18;0.80;;;14.40;68.30;;;;;;5046391;28;20036;-67
2021/10/29 17:22:54;;;;;;;3.00;0.70;;;14.50;67.70;;;;;;5045471;28;20017;-67
2021/10/29 17:25:21;;;;;;;5.30;0.85;;;14.60;67.70;;;;;;5046676;28;20483;-67
2021/10/29 17:27:48;;;;;;;10.20;1.48;;;14.80;67.60;;;;;;5045453;28;20396;-67
2021/10/29 17:30:18;;;;;;;2.85;0.60;;;14.70;67.40;;;;;;5045554;28;20063;-67
2021/10/29 17:32:47;;;;;;;5.10;0.82;;;14.70;67.70;;;;;;5046154;28;20029;-68
2021/10/29 17:35:16;;;;;;;3.80;0.50;;;14.50;69.10;;;;;;5046556;28;20025;-67
2021/10/29 17:37:44;;;;;;;1.63;0.60;;;14.50;69.10;;;;;;5045613;28;20091;-68
2021/10/29 17:40:14;;;;;;;1.70;0.38;;;14.50;69.10;;;;;;5045793;28;20040;-67
2021/10/29 17:42:41;;;;;;;1.58;0.43;;;14.40;69.70;;;;;;5046399;28;20446;-68
2021/10/29 17:45:11;;;;;;;2.47;0.70;;;14.30;70.00;;;;;;5044547;28;20025;-67
2021/10/29 17:47:38;;;;;;;1.05;0.30;;;14.40;70.30;;;;;;5045924;28;20443;-67
2021/10/29 17:50:06;;;;;;;6.13;1.08;;;14.30;70.60;;;;;;5044216;28;20488;-67
2021/10/29 17:52:33;;;;;;;6.05;1.00;;;14.30;71.10;;;;;;5045164;28;20444;-67
2021/10/29 17:55:01;;;;;;;4.25;0.70;;;14.20;71.90;;;;;;5045862;28;20144;-67
2021/10/29 17:57:28;;;;;;;9.32;1.70;;;14.20;72.30;;;;;;5045313;28;20182;-67
2021/10/29 17:59:56;;;;;;;11.13;1.45;;;14.10;72.50;;;;;;5045035;28;20033;-67
2021/10/29 18:02:24;;;;;;;9.38;0.95;;;14.10;72.80;;;;;;5044506;28;20028;-67